Time;durP1;ratioP1;P1;durP2;ratioP2;P2;SDS_P1;SDS_P2;PMS_P1;PMS_P2;Temp;Humidity;BMP_temperature;BMP_pressure;BME280_temperature;BME280_humidity;BME280_pressure;Samples;Min_cycle;Max_cycle;Signal;HPM_P1;HPM_P2
2023/04/06 00:02:26;;;;;;;;;;;;;;;2.85;49.15;92801.53;2047106;70;20056;-80
2023/04/06 00:04:52;;;;;;;;;;;;;;;2.96;49.75;92800.38;2060071;69;20051;-79
2023/04/06 00:07:18;;;;;;;;;;;;;;;2.84;49.95;92800.06;2047526;70;20117;-82
2023/04/06 00:09:44;;;;;;;;;;;;;;;2.94;50.20;92791.88;2045886;70;20076;-81
2023/04/06 00:12:13;;;;;;;;;;;;;;;2.94;50.72;92798.16;2044682;70;20075;-81
2023/04/06 00:14:40;;;;;;;;;;;;;;;2.83;50.30;92787.44;2043689;70;20075;-81
2023/04/06 00:17:06;;;;;;;;;;;;;;;2.78;51.51;92793.94;2046428;70;20048;-72
2023/04/06 00:19:32;;;;;;;;;;;;;;;2.96;49.84;92792.03;2045569;70;20091;-80
2023/04/06 00:21:57;;;;;;;;;;;;;;;2.79;50.50;92792.63;2045590;70;20098;-79
2023/04/06 00:24:23;;;;;;;;;;;;;;;2.39;53.08;92793.22;2045843;70;20058;-77
2023/04/06 00:26:49;;;;;;;;;;;;;;;2.82;51.72;92788.72;2045537;70;20139;-81
2023/04/06 00:29:15;;;;;;;;;;;;;;;2.61;51.53;92786.19;2046108;70;20043;-80
2023/04/06 00:31:44;;;;;;;;;;;;;;;2.57;52.48;92794.16;2045945;70;20364;-80
2023/04/06 00:34:10;;;;;;;;;;;;;;;2.53;52.16;92786.16;2045628;70;20063;-78
2023/04/06 00:36:38;;;;;;;;;;;;;;;2.59;52.68;92780.41;2045809;70;20121;-80
2023/04/06 00:39:04;;;;;;;;;;;;;;;2.60;51.77;92781.91;2042547;70;20053;-78
2023/04/06 00:41:30;;;;;;;;;;;;;;;2.53;51.16;92783.41;2045271;70;20075;-72
2023/04/06 00:43:56;;;;;;;;;;;;;;;2.66;50.65;92784.50;2042348;70;20134;-80
2023/04/06 00:46:21;;;;;;;;;;;;;;;2.65;51.55;92791.34;2045368;70;20062;-81
2023/04/06 00:48:47;;;;;;;;;;;;;;;2.52;50.39;92787.47;2042253;70;20603;-79
2023/04/06 00:51:12;;;;;;;;;;;;;;;2.50;51.04;92795.63;2047662;70;20052;-79
2023/04/06 00:53:38;;;;;;;;;;;;;;;2.45;51.46;92793.03;2042229;70;20165;-80
2023/04/06 00:56:04;;;;;;;;;;;;;;;2.49;50.45;92790.63;2058048;69;20494;-79
2023/04/06 00:58:43;;;;;;;;;;;;;;;2.45;49.62;92790.25;2042521;70;20069;-83
2023/04/06 01:01:09;;;;;;;;;;;;;;;2.54;51.25;92790.44;2046234;70;20136;-78
2023/04/06 01:03:34;;;;;;;;;;;;;;;2.55;52.06;92793.94;2048822;70;20059;-78
2023/04/06 01:06:01;;;;;;;;;;;;;;;2.59;50.94;92788.75;2045158;70;20455;-80
2023/04/06 01:08:34;;;;;;;;;;;;;;;2.53;51.92;92796.56;2045047;70;20062;-78
2023/04/06 01:11:18;;;;;;;;;;;;;;;2.50;52.34;92790.06;2045035;70;20154;-77
2023/04/06 01:13:45;;;;;;;;;;;;;;;2.61;52.16;92802.84;2042343;69;20057;-78
2023/04/06 01:16:19;;;;;;;;;;;;;;;2.60;52.18;92792.28;2045404;70;20086;-70
2023/04/06 01:19:00;;;;;;;;;;;;;;;2.58;52.67;92801.19;2051090;70;20048;-70
2023/04/06 01:21:29;;;;;;;;;;;;;;;2.59;53.15;92791.53;2044622;70;20487;-80
2023/04/06 01:24:17;;;;;;;;;;;;;;;2.53;54.02;92791.00;2048151;70;20071;-73
2023/04/06 01:27:16;;;;;;;;;;;;;;;2.66;53.79;92793.59;2044577;70;20055;-76
2023/04/06 01:30:02;;;;;;;;;;;;;;;2.72;53.26;92787.81;2047570;70;20054;-76
2023/04/06 01:32:45;;;;;;;;;;;;;;;2.73;52.35;92784.47;2047754;70;20147;-80
2023/04/06 01:35:13;;;;;;;;;;;;;;;2.71;52.54;92780.78;2045409;70;20085;-75
2023/04/06 01:37:46;;;;;;;;;;;;;;;2.67;52.70;92774.88;2047431;69;20071;-77
2023/04/06 01:40:18;;;;;;;;;;;;;;;2.75;52.61;92767.25;2060801;69;20215;-80
2023/04/06 01:42:48;;;;;;;;;;;;;;;2.78;51.79;92777.25;2049075;70;20198;-75
2023/04/06 01:45:21;;;;;;;;;;;;;;;2.72;52.07;92785.03;2044955;69;20063;-75
2023/04/06 01:47:47;;;;;;;;;;;;;;;2.79;51.97;92784.28;2043036;70;20055;-78
2023/04/06 01:50:13;;;;;;;;;;;;;;;2.44;53.33;92749.88;2058764;69;20063;-78
2023/04/06 01:52:43;;;;;;;;;;;;;;;2.66;52.75;92771.34;2042110;70;20167;-80
2023/04/06 01:55:10;;;;;;;;;;;;;;;2.89;52.14;92773.34;2042615;70;20483;-79
2023/04/06 01:58:00;;;;;;;;;;;;;;;2.79;53.45;92771.13;2045342;70;20064;-81
2023/04/06 02:00:33;;;;;;;;;;;;;;;2.81;52.83;92762.22;2045385;70;20060;-79
2023/04/06 02:02:59;;;;;;;;;;;;;;;2.98;51.99;92765.16;2042591;70;20054;-80
2023/04/06 02:05:29;;;;;;;;;;;;;;;3.08;51.75;92767.38;2042847;69;20227;-77
2023/04/06 02:07:55;;;;;;;;;;;;;;;3.07;52.39;92766.63;2041880;70;20418;-71
2023/04/06 02:10:29;;;;;;;;;;;;;;;3.05;54.36;92769.22;2045005;70;20062;-78
2023/04/06 02:12:58;;;;;;;;;;;;;;;3.03;52.97;92763.47;2044986;70;20158;-74
2023/04/06 02:15:26;;;;;;;;;;;;;;;2.86;53.85;92766.13;2044937;70;20066;-77
2023/04/06 02:17:51;;;;;;;;;;;;;;;2.60;55.27;92761.69;2045468;70;20047;-78
2023/04/06 02:20:17;;;;;;;;;;;;;;;2.71;53.92;92770.41;2044870;70;20142;-79
2023/04/06 02:22:43;;;;;;;;;;;;;;;2.65;53.98;92769.84;2042016;70;20104;-78
2023/04/06 02:25:09;;;;;;;;;;;;;;;2.82;54.78;92772.03;2045358;70;20102;-80
2023/04/06 02:27:36;;;;;;;;;;;;;;;2.94;52.62;92753.69;2045263;70;20073;-75
2023/04/06 02:30:01;;;;;;;;;;;;;;;2.98;53.04;92758.88;2045250;70;20063;-80
2023/04/06 02:32:27;;;;;;;;;;;;;;;2.99;53.87;92761.06;2045266;70;20471;-80
2023/04/06 02:34:53;;;;;;;;;;;;;;;3.04;52.90;92762.19;2045476;70;20149;-78
2023/04/06 02:37:20;;;;;;;;;;;;;;;3.02;52.41;92764.75;2045784;70;20162;-80
2023/04/06 02:39:46;;;;;;;;;;;;;;;3.06;52.83;92754.00;2045314;70;20166;-80
2023/04/06 02:42:11;;;;;;;;;;;;;;;2.93;53.46;92762.56;2044322;70;20399;-79
2023/04/06 02:44:37;;;;;;;;;;;;;;;2.84;54.37;92763.13;2042077;69;20058;-77
2023/04/06 02:47:02;;;;;;;;;;;;;;;2.80;53.54;92767.06;2044744;70;20551;-75
2023/04/06 02:49:28;;;;;;;;;;;;;;;2.79;53.46;92762.81;2042164;69;20572;-76
2023/04/06 02:51:56;;;;;;;;;;;;;;;2.87;53.76;92751.66;2045398;70;20062;-81
2023/04/06 02:54:25;;;;;;;;;;;;;;;2.59;53.75;92758.19;2045122;70;20400;-76
2023/04/06 02:56:51;;;;;;;;;;;;;;;2.74;53.36;92760.94;2046060;70;20051;-72
2023/04/06 02:59:18;;;;;;;;;;;;;;;2.78;53.04;92755.75;2045230;70;20067;-78
2023/04/06 03:01:53;;;;;;;;;;;;;;;2.74;54.47;92755.38;2041898;70;20108;-75
2023/04/06 03:04:18;;;;;;;;;;;;;;;2.73;54.80;92756.69;2041765;69;20067;-78
2023/04/06 03:06:45;;;;;;;;;;;;;;;2.78;53.70;92757.78;2042068;69;20062;-72
2023/04/06 03:09:20;;;;;;;;;;;;;;;2.84;53.33;92761.13;2045301;70;20121;-81
2023/04/06 03:11:46;;;;;;;;;;;;;;;2.76;53.59;92754.84;2044692;70;20097;-77
2023/04/06 03:14:12;;;;;;;;;;;;;;;2.67;54.77;92760.97;2041701;70;20048;-75
2023/04/06 03:16:38;;;;;;;;;;;;;;;2.61;54.18;92757.63;2041873;69;20110;-79
2023/04/06 03:19:04;;;;;;;;;;;;;;;2.58;55.18;92765.03;2042085;69;20059;-80
2023/04/06 03:21:34;;;;;;;;;;;;;;;2.51;56.01;92760.22;2054565;69;20146;-80
2023/04/06 03:23:59;;;;;;;;;;;;;;;2.53;55.61;92761.16;2045079;70;20068;-80
2023/04/06 03:26:26;;;;;;;;;;;;;;;2.59;53.99;92763.00;2041674;69;20047;-78
2023/04/06 03:28:52;;;;;;;;;;;;;;;2.62;53.88;92770.25;2044909;70;20571;-78
2023/04/06 03:31:30;;;;;;;;;;;;;;;2.21;54.96;92758.94;2047544;70;20047;-75
2023/04/06 03:34:00;;;;;;;;;;;;;;;2.43;54.20;92765.03;2055841;69;20581;-81
2023/04/06 03:36:34;;;;;;;;;;;;;;;2.57;54.52;92763.56;2044827;70;20055;-80
2023/04/06 03:39:02;;;;;;;;;;;;;;;2.47;54.37;92770.97;2045821;70;20143;-76
2023/04/06 03:41:31;;;;;;;;;;;;;;;2.47;54.33;92771.72;2058298;69;20059;-81
2023/04/06 03:44:06;;;;;;;;;;;;;;;2.42;54.91;92780.22;2042830;69;20066;-80
2023/04/06 03:46:34;;;;;;;;;;;;;;;2.40;54.52;92775.25;2044935;69;20064;-79
2023/04/06 03:49:08;;;;;;;;;;;;;;;2.42;54.23;92780.22;2042832;70;20051;-80
2023/04/06 03:51:35;;;;;;;;;;;;;;;2.43;53.75;92779.69;2039647;70;20059;-80
2023/04/06 03:54:02;;;;;;;;;;;;;;;2.34;55.03;92782.28;2042903;69;20087;-80
2023/04/06 03:56:29;;;;;;;;;;;;;;;2.45;54.11;92785.44;2044920;69;20091;-82
2023/04/06 03:58:55;;;;;;;;;;;;;;;2.40;54.68;92791.19;2045362;70;20055;-82
2023/04/06 04:01:28;;;;;;;;;;;;;;;2.39;54.47;92784.88;2042734;69;20143;-80
2023/04/06 04:03:54;;;;;;;;;;;;;;;2.35;54.35;92786.56;2046966;70;20085;-78
2023/04/06 04:06:20;;;;;;;;;;;;;;;2.29;56.21;92793.03;2046550;70;20047;-82
2023/04/06 04:08:47;;;;;;;;;;;;;;;2.25;55.63;92794.69;2045232;70;20497;-81
2023/04/06 04:11:15;;;;;;;;;;;;;;;2.25;55.20;92789.88;2042373;70;20047;-84
2023/04/06 04:13:50;;;;;;;;;;;;;;;2.35;56.36;92798.41;2042463;69;20446;-77
2023/04/06 04:16:16;;;;;;;;;;;;;;;2.22;55.88;92799.31;2045489;69;20104;-83
2023/04/06 04:18:43;;;;;;;;;;;;;;;2.26;55.59;92788.56;2041866;70;20082;-78
2023/04/06 04:21:09;;;;;;;;;;;;;;;2.23;55.69;92791.72;2042574;70;20533;-80
2023/04/06 04:23:36;;;;;;;;;;;;;;;2.14;55.40;92786.72;2043913;69;20540;-80
2023/04/06 04:26:05;;;;;;;;;;;;;;;2.18;54.30;92793.38;2046153;70;20047;-80
2023/04/06 04:28:31;;;;;;;;;;;;;;;2.22;54.33;92793.75;2057901;69;20059;-83
2023/04/06 04:30:57;;;;;;;;;;;;;;;2.12;55.59;92787.28;2057167;69;20203;-80
2023/04/06 04:33:26;;;;;;;;;;;;;;;2.16;55.13;92793.22;2057278;69;20552;-81
2023/04/06 04:36:01;;;;;;;;;;;;;;;2.15;55.14;92788.19;2057568;69;20382;-83
2023/04/06 04:38:38;;;;;;;;;;;;;;;2.10;55.29;92798.19;2054662;69;20056;-81
2023/04/06 04:41:08;;;;;;;;;;;;;;;2.12;54.95;92790.06;2057346;69;20485;-83
2023/04/06 04:43:38;;;;;;;;;;;;;;;2.03;54.57;92801.72;2059716;69;20076;-81
2023/04/06 04:46:08;;;;;;;;;;;;;;;2.21;55.03;92805.44;2044531;70;20487;-81
2023/04/06 04:48:40;;;;;;;;;;;;;;;2.07;55.66;92802.09;2064084;69;20088;-78
2023/04/06 04:51:06;;;;;;;;;;;;;;;1.94;56.30;92807.78;2061282;69;20073;-77
2023/04/06 04:57:29;;;;;;;;;;;;;;;1.94;56.49;92816.13;2063793;69;20123;-73
2023/04/06 04:59:56;;;;;;;;;;;;;;;1.98;55.59;92811.69;2059803;69;20219;-71
2023/04/06 05:02:21;;;;;;;;;;;;;;;2.00;55.37;92819.47;2056808;69;20100;-76
2023/04/06 05:05:05;;;;;;;;;;;;;;;1.64;57.71;92828.63;2061447;69;20057;-80
2023/04/06 05:07:32;;;;;;;;;;;;;;;1.90;56.93;92824.81;2060810;69;20066;-77
2023/04/06 05:10:13;;;;;;;;;;;;;;;2.00;56.63;92822.25;2058126;69;20102;-73
2023/04/06 05:12:51;;;;;;;;;;;;;;;1.96;56.91;92828.16;2044645;69;20049;-79
2023/04/06 05:15:16;;;;;;;;;;;;;;;2.06;56.45;92824.84;2044841;69;20192;-75
2023/04/06 05:17:42;;;;;;;;;;;;;;;2.10;56.31;92822.44;2042228;69;20537;-79
2023/04/06 05:20:12;;;;;;;;;;;;;;;2.19;56.65;92827.44;2042100;70;20090;-80
2023/04/06 05:22:45;;;;;;;;;;;;;;;2.07;55.95;92827.06;2042214;70;20419;-78
2023/04/06 05:25:10;;;;;;;;;;;;;;;2.04;56.72;92820.59;2042103;70;20058;-72
2023/04/06 05:27:37;;;;;;;;;;;;;;;2.11;56.01;92827.47;2041987;69;20494;-77
2023/04/06 05:30:08;;;;;;;;;;;;;;;2.15;56.89;92830.59;2042144;69;20079;-77
2023/04/06 05:32:39;;;;;;;;;;;;;;;2.04;56.17;92833.72;2042151;70;20083;-72
2023/04/06 05:35:05;;;;;;;;;;;;;;;2.03;57.62;92832.25;2045828;70;20451;-79
2023/04/06 05:37:31;;;;;;;;;;;;;;;2.07;56.29;92831.91;2042033;70;20059;-77
2023/04/06 05:39:57;;;;;;;;;;;;;;;2.04;56.18;92831.69;2042192;70;20499;-79
2023/04/06 05:42:23;;;;;;;;;;;;;;;1.99;56.94;92840.19;2045486;70;20054;-75
2023/04/06 05:44:52;;;;;;;;;;;;;;;2.04;56.08;92842.06;2041942;70;20051;-73
2023/04/06 05:47:17;;;;;;;;;;;;;;;1.99;56.78;92845.75;2042099;69;20121;-71
2023/04/06 05:49:48;;;;;;;;;;;;;;;1.94;57.05;92850.19;2044706;70;20059;-72
2023/04/06 05:52:21;;;;;;;;;;;;;;;1.90;56.47;92851.84;2041977;70;20455;-72
2023/04/06 05:54:48;;;;;;;;;;;;;;;1.94;56.66;92852.22;2041996;70;20051;-76
2023/04/06 05:57:16;;;;;;;;;;;;;;;1.89;56.96;92850.34;2041893;70;20058;-72
2023/04/06 05:59:41;;;;;;;;;;;;;;;1.95;56.95;92851.66;2044713;70;20449;-74
2023/04/06 06:02:08;;;;;;;;;;;;;;;2.01;56.51;92857.03;2042201;70;20082;-81
2023/04/06 06:04:38;;;;;;;;;;;;;;;1.91;57.12;92862.38;2042724;70;20446;-72
2023/04/06 06:07:05;;;;;;;;;;;;;;;1.97;56.60;92864.97;2044801;70;20058;-75
2023/04/06 06:09:40;;;;;;;;;;;;;;;2.01;57.28;92854.25;2045841;70;20052;-82
2023/04/06 06:12:16;;;;;;;;;;;;;;;2.01;57.31;92855.00;2044495;70;20061;-76
2023/04/06 06:14:41;;;;;;;;;;;;;;;1.90;57.23;92866.47;2042032;70;20059;-76
2023/04/06 06:17:07;;;;;;;;;;;;;;;1.82;57.99;92864.94;2041936;70;20143;-77
2023/04/06 06:19:33;;;;;;;;;;;;;;;1.97;56.84;92851.09;2044917;70;20471;-78
2023/04/06 06:22:02;;;;;;;;;;;;;;;1.97;57.03;92859.44;2046467;70;20475;-78
2023/04/06 06:24:28;;;;;;;;;;;;;;;1.83;57.79;92861.59;2042642;69;20170;-82
2023/04/06 06:26:55;;;;;;;;;;;;;;;1.95;57.90;92865.53;2044553;69;20078;-72
2023/04/06 06:29:24;;;;;;;;;;;;;;;2.10;56.89;92859.28;2041850;70;20051;-73
2023/04/06 06:31:50;;;;;;;;;;;;;;;1.99;57.39;92867.97;2041839;70;20429;-75
2023/04/06 06:34:15;;;;;;;;;;;;;;;2.11;56.92;92857.25;2045563;70;20118;-78
2023/04/06 06:36:42;;;;;;;;;;;;;;;2.04;57.74;92869.81;2041720;69;20610;-78
2023/04/06 06:39:10;;;;;;;;;;;;;;;2.11;57.25;92865.56;2041127;70;20055;-81
2023/04/06 06:41:36;;;;;;;;;;;;;;;2.15;57.22;92861.13;2043483;70;20178;-75
2023/04/06 06:44:02;;;;;;;;;;;;;;;2.14;56.55;92861.69;2044772;70;20566;-74
2023/04/06 06:46:27;;;;;;;;;;;;;;;1.96;56.87;92858.69;2044010;70;20063;-81
2023/04/06 06:48:53;;;;;;;;;;;;;;;2.05;57.67;92862.97;2044869;70;20059;-74
2023/04/06 06:51:19;;;;;;;;;;;;;;;2.18;56.92;92862.09;2044858;70;20210;-80
2023/04/06 06:53:44;;;;;;;;;;;;;;;2.44;57.78;92847.88;2041851;69;20148;-82
2023/04/06 06:56:10;;;;;;;;;;;;;;;3.08;57.33;92854.34;2045626;70;20090;-81
2023/04/06 06:58:35;;;;;;;;;;;;;;;3.40;56.78;92856.50;2045875;70;20091;-81
2023/04/06 07:01:01;;;;;;;;;;;;;;;3.63;56.33;92853.63;2042511;70;20063;-81
2023/04/06 07:03:29;;;;;;;;;;;;;;;3.30;56.67;92864.69;2042362;70;20075;-79
2023/04/06 07:05:55;;;;;;;;;;;;;;;3.83;56.17;92852.63;2045760;70;20051;-79
2023/04/06 07:08:22;;;;;;;;;;;;;;;3.95;55.05;92855.75;2042165;70;20055;-77
2023/04/06 07:10:48;;;;;;;;;;;;;;;4.29;53.91;92854.44;2045501;70;20051;-78
2023/04/06 07:13:21;;;;;;;;;;;;;;;3.83;52.99;92849.84;2045058;70;20114;-77
2023/04/06 07:15:48;;;;;;;;;;;;;;;4.15;53.99;92853.97;2042599;70;20055;-81
2023/04/06 07:18:13;;;;;;;;;;;;;;;4.51;53.61;92841.66;2042606;69;20055;-81
2023/04/06 07:20:39;;;;;;;;;;;;;;;4.77;51.55;92849.47;2046136;70;20142;-76
2023/04/06 07:23:05;;;;;;;;;;;;;;;5.19;50.08;92845.94;2042538;70;20058;-80
2023/04/06 07:25:30;;;;;;;;;;;;;;;5.20;48.55;92838.31;2045248;70;20589;-80
2023/04/06 07:27:56;;;;;;;;;;;;;;;5.48;48.78;92837.09;2045570;69;20116;-77
2023/04/06 07:30:26;;;;;;;;;;;;;;;5.66;48.07;92840.63;2042711;70;20147;-82
2023/04/06 07:32:51;;;;;;;;;;;;;;;6.30;47.52;92836.69;2042525;70;20047;-79
2023/04/06 07:35:17;;;;;;;;;;;;;;;6.50;47.02;92840.31;2042222;70;20078;-77
2023/04/06 07:37:42;;;;;;;;;;;;;;;6.67;45.81;92842.31;2045914;69;20047;-82
2023/04/06 07:40:10;;;;;;;;;;;;;;;6.79;44.67;92840.44;2045283;70;20138;-80
2023/04/06 07:42:36;;;;;;;;;;;;;;;7.10;44.44;92839.94;2042106;70;20117;-79
2023/04/06 07:45:06;;;;;;;;;;;;;;;7.16;44.38;92843.22;2042446;70;20127;-81
2023/04/06 07:47:32;;;;;;;;;;;;;;;7.48;43.76;92839.31;2042213;70;20117;-80
2023/04/06 07:49:57;;;;;;;;;;;;;;;7.55;43.69;92846.09;2044960;70;20063;-71
2023/04/06 07:52:23;;;;;;;;;;;;;;;7.53;43.78;92835.47;2044796;70;20137;-74
2023/04/06 07:54:49;;;;;;;;;;;;;;;8.03;42.50;92837.69;2045117;70;20175;-73
2023/04/06 07:57:15;;;;;;;;;;;;;;;7.64;41.40;92832.09;2045366;70;20142;-79
2023/04/06 07:59:40;;;;;;;;;;;;;;;8.41;41.77;92830.56;2045791;70;20055;-81
2023/04/06 08:02:07;;;;;;;;;;;;;;;9.29;40.73;92828.91;2045641;70;20558;-80
2023/04/06 08:04:33;;;;;;;;;;;;;;;9.31;39.16;92823.44;2044912;70;20060;-72
2023/04/06 08:06:58;;;;;;;;;;;;;;;9.32;38.65;92824.91;2045516;70;20071;-72
2023/04/06 08:09:24;;;;;;;;;;;;;;;9.66;37.48;92820.09;2045634;70;20426;-71
2023/04/06 08:11:49;;;;;;;;;;;;;;;9.99;38.03;92816.56;2046375;70;20043;-74
2023/04/06 08:14:15;;;;;;;;;;;;;;;9.94;36.82;92815.56;2046326;70;20052;-73
2023/04/06 08:16:41;;;;;;;;;;;;;;;9.31;37.52;92811.47;2045611;70;20059;-76
2023/04/06 08:19:09;;;;;;;;;;;;;;;10.68;35.88;92815.38;2045594;70;20047;-76
2023/04/06 08:21:35;;;;;;;;;;;;;;;11.09;35.77;92807.31;2045643;70;20411;-79
2023/04/06 08:24:00;;;;;;;;;;;;;;;11.65;34.90;92808.47;2045397;70;20062;-78
2023/04/06 08:26:26;;;;;;;;;;;;;;;11.68;34.38;92801.59;2045406;69;20085;-75
2023/04/06 08:28:51;;;;;;;;;;;;;;;11.64;33.44;92804.19;2045518;69;20096;-85
2023/04/06 08:31:17;;;;;;;;;;;;;;;12.01;34.82;92798.59;2045838;70;20059;-85
2023/04/06 08:33:42;;;;;;;;;;;;;;;12.03;33.06;92792.34;2056626;69;20053;-72
2023/04/06 08:36:12;;;;;;;;;;;;;;;12.35;32.67;92787.78;2045451;70;20146;-72
2023/04/06 08:38:38;;;;;;;;;;;;;;;12.81;32.05;92789.59;2045869;70;20051;-83
2023/04/06 08:41:07;;;;;;;;;;;;;;;13.51;33.66;92785.47;2045479;70;20050;-73
2023/04/06 08:43:33;;;;;;;;;;;;;;;12.55;32.44;92782.50;2045783;70;20091;-74
2023/04/06 08:45:59;;;;;;;;;;;;;;;12.88;31.94;92793.50;2045707;70;20118;-73
2023/04/06 08:48:25;;;;;;;;;;;;;;;12.10;32.13;92792.06;2045394;70;20085;-77
2023/04/06 08:50:50;;;;;;;;;;;;;;;13.41;31.21;92782.16;2045577;70;20138;-83
2023/04/06 08:53:16;;;;;;;;;;;;;;;14.24;30.70;92780.63;2045361;70;20063;-73
2023/04/06 08:55:43;;;;;;;;;;;;;;;14.07;28.26;92778.41;2045484;70;20063;-75
2023/04/06 08:58:10;;;;;;;;;;;;;;;14.89;28.93;92780.19;2045384;70;20282;-74
2023/04/06 09:00:37;;;;;;;;;;;;;;;13.92;27.79;92781.88;2045328;70;20433;-81
2023/04/06 09:03:03;;;;;;;;;;;;;;;14.71;28.66;92782.19;2045514;70;20143;-74
2023/04/06 09:05:29;;;;;;;;;;;;;;;15.03;27.21;92782.19;2045375;70;20170;-73
2023/04/06 09:07:55;;;;;;;;;;;;;;;15.03;27.32;92782.94;2045512;70;20055;-73
2023/04/06 09:10:23;;;;;;;;;;;;;;;15.93;25.63;92776.25;2045437;70;20138;-76
2023/04/06 09:12:48;;;;;;;;;;;;;;;16.28;24.23;92774.84;2045430;70;20138;-76
2023/04/06 09:15:18;;;;;;;;;;;;;;;16.44;24.39;92764.13;2047442;70;20138;-74
2023/04/06 09:17:43;;;;;;;;;;;;;;;15.36;24.41;92775.88;2047839;70;20056;-77
2023/04/06 09:20:09;;;;;;;;;;;;;;;15.99;23.77;92770.13;2048140;70;20129;-73
2023/04/06 09:22:39;;;;;;;;;;;;;;;15.49;24.29;92767.28;2042904;70;20095;-77
2023/04/06 09:25:05;;;;;;;;;;;;;;;15.41;23.64;92764.06;2045686;70;20434;-76
2023/04/06 09:27:32;;;;;;;;;;;;;;;15.09;24.17;92766.19;2042117;69;20454;-76
2023/04/06 09:30:07;;;;;;;;;;;;;;;16.32;23.24;92765.78;2045277;70;20493;-78
2023/04/06 09:32:44;;;;;;;;;;;;;;;16.67;23.13;92756.50;2045451;70;20066;-74
2023/04/06 09:35:10;;;;;;;;;;;;;;;17.28;23.74;92750.31;2045297;70;20059;-79
2023/04/06 09:37:36;;;;;;;;;;;;;;;17.22;22.48;92755.75;2045388;70;20139;-81
2023/04/06 09:40:05;;;;;;;;;;;;;;;17.39;20.81;92749.28;2045250;70;20054;-78
2023/04/06 09:42:31;;;;;;;;;;;;;;;18.10;21.10;92748.25;2045238;70;20507;-76
2023/04/06 09:44:57;;;;;;;;;;;;;;;18.59;20.46;92744.13;2042064;70;20091;-75
2023/04/06 09:47:23;;;;;;;;;;;;;;;16.36;22.05;92743.94;2045422;70;20094;-73
2023/04/06 09:49:50;;;;;;;;;;;;;;;14.41;23.48;92730.44;2045200;70;20060;-73
2023/04/06 09:52:17;;;;;;;;;;;;;;;14.81;22.27;92730.91;2042039;70;20067;-73
2023/04/06 09:54:46;;;;;;;;;;;;;;;17.14;22.14;92727.03;2045497;70;20120;-74
2023/04/06 09:57:20;;;;;;;;;;;;;;;19.05;19.91;92724.16;2045303;70;20091;-73
2023/04/06 09:59:53;;;;;;;;;;;;;;;16.62;19.56;92723.63;2042044;70;20446;-73
2023/04/06 10:02:37;;;;;;;;;;;;;;;16.10;20.69;92723.72;2046876;70;20095;-73
2023/04/06 10:05:09;;;;;;;;;;;;;;;17.84;21.51;92719.59;2046118;70;20051;-76
2023/04/06 10:07:35;;;;;;;;;;;;;;;14.86;20.90;92721.22;2045599;70;20064;-73
2023/04/06 10:10:02;;;;;;;;;;;;;;;16.61;20.79;92716.47;2045239;70;20154;-73
2023/04/06 10:12:27;;;;;;;;;;;;;;;15.66;20.76;92716.91;2045438;70;20083;-78
2023/04/06 10:14:53;;;;;;;;;;;;;;;18.20;19.27;92716.50;2045369;70;20093;-75
2023/04/06 10:17:18;;;;;;;;;;;;;;;18.62;18.72;92707.84;2045901;70;20554;-75
2023/04/06 10:19:52;;;;;;;;;;;;;;;16.84;18.88;92713.13;2045250;70;20051;-85
2023/04/06 10:22:36;;;;;;;;;;;;;;;15.08;20.41;92710.88;2045310;70;20091;-77
2023/04/06 10:25:01;;;;;;;;;;;;;;;17.38;19.95;92699.47;2041951;70;20419;-84
2023/04/06 10:27:27;;;;;;;;;;;;;;;17.91;19.40;92694.88;2041814;69;20059;-79
2023/04/06 10:29:53;;;;;;;;;;;;;;;21.34;16.54;92705.00;2045184;70;20055;-75
2023/04/06 10:32:18;;;;;;;;;;;;;;;19.87;18.28;92706.47;2045375;70;20067;-74
2023/04/06 10:34:44;;;;;;;;;;;;;;;21.79;15.92;92700.16;2045286;70;20098;-75
2023/04/06 10:37:18;;;;;;;;;;;;;;;19.40;16.99;92705.19;2045177;70;20569;-77
2023/04/06 10:40:01;;;;;;;;;;;;;;;22.24;14.72;92698.88;2045254;70;20143;-80
2023/04/06 10:42:37;;;;;;;;;;;;;;;24.22;14.13;92706.63;2045293;70;20051;-79
2023/04/06 10:45:07;;;;;;;;;;;;;;;21.61;14.93;92706.25;2044921;70;20062;-80
2023/04/06 10:47:42;;;;;;;;;;;;;;;25.23;14.99;92714.72;2045176;70;20125;-73
2023/04/06 10:50:08;;;;;;;;;;;;;;;26.17;14.66;92713.00;2045047;70;20077;-80
2023/04/06 10:52:33;;;;;;;;;;;;;;;26.18;13.94;92713.72;2041836;70;20418;-78
2023/04/06 10:54:59;;;;;;;;;;;;;;;28.85;12.00;92711.00;2041897;70;20173;-80
2023/04/06 10:57:28;;;;;;;;;;;;;;;29.13;11.94;92718.06;2042090;70;20467;-76
2023/04/06 10:59:54;;;;;;;;;;;;;;;24.59;12.78;92699.81;2046472;70;20051;-81
2023/04/06 11:02:21;;;;;;;;;;;;;;;28.28;11.67;92699.06;2045989;70;20109;-82
2023/04/06 11:04:53;;;;;;;;;;;;;;;28.71;12.02;92704.59;2042012;70;20051;-77
2023/04/06 11:07:23;;;;;;;;;;;;;;;25.00;12.34;92702.28;2045238;70;20105;-83
2023/04/06 11:09:49;;;;;;;;;;;;;;;29.70;9.91;92703.03;2045162;70;20062;-81
2023/04/06 11:12:28;;;;;;;;;;;;;;;32.78;11.53;92703.06;2045577;70;20066;-83
2023/04/06 11:14:55;;;;;;;;;;;;;;;32.73;9.75;92693.69;2045416;70;20058;-84
2023/04/06 11:17:27;;;;;;;;;;;;;;;34.73;9.81;92699.44;2045324;70;20442;-84
2023/04/06 11:19:53;;;;;;;;;;;;;;;37.07;9.17;92703.09;2045164;70;20051;-75
2023/04/06 11:22:19;;;;;;;;;;;;;;;29.18;9.50;92672.34;2045191;70;20082;-83
2023/04/06 11:24:45;;;;;;;;;;;;;;;30.08;9.56;92675.00;2044947;70;20184;-79
2023/04/06 11:27:10;;;;;;;;;;;;;;;31.95;9.54;92680.06;2044821;69;20082;-84
2023/04/06 11:29:37;;;;;;;;;;;;;;;31.66;10.75;92676.97;2045401;70;20052;-84
2023/04/06 11:32:04;;;;;;;;;;;;;;;33.05;8.08;92676.97;2045338;70;20103;-83
2023/04/06 11:34:30;;;;;;;;;;;;;;;36.76;8.09;92680.09;2045212;70;20159;-77
2023/04/06 11:36:57;;;;;;;;;;;;;;;37.05;8.22;92676.75;2045158;70;20048;-79
2023/04/06 11:39:23;;;;;;;;;;;;;;;31.72;9.50;92664.47;2045088;70;20147;-81
2023/04/06 11:41:50;;;;;;;;;;;;;;;31.92;8.82;92660.47;2044840;70;20146;-78
2023/04/06 11:44:15;;;;;;;;;;;;;;;28.91;10.34;92652.31;2045104;70;20551;-85
2023/04/06 11:46:50;;;;;;;;;;;;;;;29.68;9.93;92650.84;2044954;70;20147;-77
2023/04/06 11:49:16;;;;;;;;;;;;;;;23.43;12.26;92648.97;2045105;70;20046;-75
2023/04/06 11:51:42;;;;;;;;;;;;;;;27.22;11.22;92650.28;2045157;70;20060;-81
2023/04/06 11:54:07;;;;;;;;;;;;;;;28.70;9.96;92657.53;2045905;70;20051;-74
2023/04/06 11:56:33;;;;;;;;;;;;;;;26.50;11.98;92656.09;2045911;70;20165;-78
2023/04/06 11:59:01;;;;;;;;;;;;;;;27.41;10.91;92648.06;2045961;70;20048;-75
2023/04/06 12:01:27;;;;;;;;;;;;;;;29.97;10.01;92645.41;2045723;70;20059;-78
2023/04/06 12:03:52;;;;;;;;;;;;;;;31.67;9.44;92640.56;2045635;70;20106;-76
2023/04/06 12:06:18;;;;;;;;;;;;;;;29.84;8.71;92639.03;2045669;70;20051;-79
2023/04/06 12:08:44;;;;;;;;;;;;;;;29.97;9.58;92636.72;2045685;70;20144;-79
2023/04/06 12:11:10;;;;;;;;;;;;;;;29.12;9.24;92627.50;2045527;70;20072;-79
2023/04/06 12:13:36;;;;;;;;;;;;;;;27.32;10.22;92624.97;2045753;70;20058;-76
2023/04/06 12:16:01;;;;;;;;;;;;;;;32.25;8.45;92628.47;2045538;70;20483;-76
2023/04/06 12:18:26;;;;;;;;;;;;;;;32.41;8.36;92630.34;2045374;70;20083;-83
2023/04/06 12:20:52;;;;;;;;;;;;;;;31.00;8.03;92627.94;2045537;70;20078;-79
2023/04/06 12:23:19;;;;;;;;;;;;;;;30.02;9.30;92626.47;2045478;70;20165;-77
2023/04/06 12:25:44;;;;;;;;;;;;;;;30.88;8.76;92614.34;2045464;70;20087;-82
2023/04/06 12:28:10;;;;;;;;;;;;;;;29.90;9.14;92608.50;2045554;69;20171;-82
2023/04/06 12:30:35;;;;;;;;;;;;;;;29.62;8.61;92608.13;2045518;70;20062;-79
2023/04/06 12:33:01;;;;;;;;;;;;;;;29.35;9.00;92604.78;2045721;70;20051;-78
2023/04/06 12:35:27;;;;;;;;;;;;;;;32.86;7.87;92603.78;2045544;70;20051;-82
2023/04/06 12:37:52;;;;;;;;;;;;;;;29.43;9.46;92603.97;2045677;69;20059;-80
2023/04/06 12:40:18;;;;;;;;;;;;;;;27.05;10.48;92598.28;2045585;70;20447;-76
2023/04/06 12:42:43;;;;;;;;;;;;;;;33.41;8.52;92602.38;2045310;70;20054;-77
2023/04/06 12:45:09;;;;;;;;;;;;;;;33.56;7.48;92602.75;2045621;70;20063;-76
2023/04/06 12:47:36;;;;;;;;;;;;;;;32.68;8.16;92613.69;2045323;70;20081;-84
2023/04/06 12:50:01;;;;;;;;;;;;;;;37.48;6.99;92619.28;2045560;70;20055;-77
2023/04/06 12:52:30;;;;;;;;;;;;;;;37.34;7.22;92620.56;2045384;70;20140;-79
2023/04/06 12:54:55;;;;;;;;;;;;;;;41.06;7.05;92632.72;2045451;70;20154;-76
2023/04/06 12:57:21;;;;;;;;;;;;;;;37.40;7.47;92613.75;2054001;69;20491;-76
2023/04/06 12:59:47;;;;;;;;;;;;;;;37.40;5.59;92622.56;2059729;69;20056;-77
2023/04/06 13:02:12;;;;;;;;;;;;;;;40.54;6.02;92621.56;2061543;69;20049;-77
2023/04/06 13:04:38;;;;;;;;;;;;;;;38.03;5.89;92608.09;2061558;69;20132;-75